Time;durP1;ratioP1;P1;durP2;ratioP2;P2;SDS_P1;SDS_P2;PMS_P1;PMS_P2;Temp;Humidity;BMP_temperature;BMP_pressure;BME280_temperature;BME280_humidity;BME280_pressure;Samples;Min_cycle;Max_cycle;Signal;HPM_P1;HPM_P2
2024/03/28 00:01:10;;;;;;;53.55;21.23;;;;;;;;;;4960241;28;20031;-93
2024/03/28 00:03:39;;;;;;;39.15;14.90;;;;;;;;;;4960345;28;20050;-92
2024/03/28 00:06:11;;;;;;;49.67;19.15;;;;;;;;;;4959652;28;20043;-94
2024/03/28 00:08:37;;;;;;;53.25;20.00;;;;;;;;;;4960004;28;20082;-94
2024/03/28 00:11:06;;;;;;;43.78;17.73;;;;;;;;;;4961301;28;20077;-91
2024/03/28 00:13:40;;;;;;;42.03;19.17;;;;;;;;;;4960511;28;20078;-93
2024/03/28 00:16:12;;;;;;;;;;;;;;;;;;4964163;28;20039;-94
2024/03/28 00:18:38;;;;;;;38.20;14.65;;;;;;;;;;4961510;28;19998;-94
2024/03/28 00:21:08;;;;;;;43.83;17.67;;;;;;;;;;4960206;28;20035;-93
2024/03/28 00:23:37;;;;;;;41.65;15.63;;;;;;;;;;4962685;28;20026;-92
2024/03/28 00:29:04;;;;;;;37.78;16.02;;;;;;;;;;4898813;29;20101;-93
2024/03/28 00:31:35;;;;;;;57.88;26.20;;;;;;;;;;4952809;28;20475;-91
2024/03/28 00:34:04;;;;;;;52.13;24.27;;;;;;;;;;4964102;28;20038;-92
2024/03/28 00:36:30;;;;;;;54.47;22.38;;;;;;;;;;4975302;28;20050;-89
2024/03/28 00:38:59;;;;;;;48.13;25.00;;;;;;;;;;4966553;28;20042;-92
2024/03/28 00:41:25;;;;;;;49.45;31.00;;;;;;;;;;4961860;28;20045;-92
2024/03/28 00:43:54;;;;;;;50.80;31.17;;;;;;;;;;4961538;28;20543;-93
2024/03/28 00:46:20;;;;;;;39.60;29.38;;;;;;;;;;4959549;28;20034;-92
2024/03/28 00:48:49;;;;;;;32.92;19.27;;;;;;;;;;4958540;28;20403;-93
2024/03/28 00:51:18;;;;;;;43.55;27.40;;;;;;;;;;4959224;28;20035;-93
2024/03/28 00:53:50;;;;;;;44.60;21.90;;;;;;;;;;4959275;28;20031;-94
2024/03/28 00:56:19;;;;;;;31.88;22.45;;;;;;;;;;4959013;28;20077;-93
2024/03/28 00:58:45;;;;;;;35.45;21.27;;;;;;;;;;4959856;28;20464;-92
2024/03/28 01:01:15;;;;;;;33.78;20.10;;;;;;;;;;4958967;28;20022;-92
2024/03/28 01:03:42;;;;;;;37.25;22.48;;;;;;;;;;4959124;28;20031;-93
2024/03/28 01:06:10;;;;;;;33.47;22.90;;;;;;;;;;4959196;28;20042;-91
2024/03/28 01:08:39;;;;;;;31.90;25.50;;;;;;;;;;4939142;29;20094;-93
2024/03/28 01:11:11;;;;;;;36.17;19.52;;;;;;;;;;4921908;29;20036;-93
2024/03/28 01:13:39;;;;;;;31.48;18.08;;;;;;;;;;4923087;29;20036;-93
2024/03/28 01:16:11;;;;;;;32.17;16.75;;;;;;;;;;4921381;28;20035;-93
2024/03/28 01:18:43;;;;;;;39.85;19.90;;;;;;;;;;4920133;29;20043;-93
2024/03/28 01:21:12;;;;;;;31.08;14.07;;;;;;;;;;4919698;29;20126;-93
2024/03/28 01:23:38;;;;;;;28.42;15.35;;;;;;;;;;4920803;29;20047;-93
2024/03/28 01:26:13;;;;;;;33.03;19.92;;;;;;;;;;4921257;29;20062;-93
2024/03/28 01:28:45;;;;;;;29.92;14.27;;;;;;;;;;4940563;29;20024;-93
2024/03/28 01:31:14;;;;;;;32.30;17.35;;;;;;;;;;4924950;29;20031;-91
2024/03/28 01:33:43;;;;;;;30.40;16.33;;;;;;;;;;4920475;29;20042;-91
2024/03/28 01:36:12;;;;;;;38.05;14.35;;;;;;;;;;4921374;29;20460;-92
2024/03/28 01:38:41;;;;;;;28.67;16.35;;;;;;;;;;4924218;28;20428;-93
2024/03/28 01:41:17;;;;;;;29.10;15.40;;;;;;;;;;4958815;28;20058;-93
2024/03/28 01:43:50;;;;;;;21.95;14.32;;;;;;;;;;4959739;28;20031;-92
2024/03/28 01:46:21;;;;;;;36.10;16.40;;;;;;;;;;4958480;28;20058;-93
2024/03/28 01:48:53;;;;;;;29.00;15.60;;;;;;;;;;4957847;28;20034;-93
2024/03/28 01:51:29;;;;;;;23.92;14.05;;;;;;;;;;4958024;28;20062;-93
2024/03/28 01:53:58;;;;;;;21.52;11.82;;;;;;;;;;4958225;28;20026;-93
2024/03/28 01:56:27;;;;;;;19.42;14.68;;;;;;;;;;4958308;28;20022;-94
2024/03/28 01:59:08;;;;;;;17.67;12.85;;;;;;;;;;4944358;28;20042;-92
2024/03/28 02:01:37;;;;;;;25.15;15.32;;;;;;;;;;4965145;28;20027;-92
2024/03/28 02:04:07;;;;;;;21.27;11.55;;;;;;;;;;4968112;28;20034;-91
2024/03/28 02:06:37;;;;;;;29.23;13.57;;;;;;;;;;4973017;28;20035;-92
2024/03/28 02:09:12;;;;;;;29.83;12.77;;;;;;;;;;4966137;28;20030;-93
2024/03/28 02:11:41;;;;;;;20.70;15.88;;;;;;;;;;4964639;28;20550;-93
2024/03/28 02:14:11;;;;;;;21.27;12.48;;;;;;;;;;4964309;28;20479;-93
2024/03/28 02:16:44;;;;;;;29.05;14.70;;;;;;;;;;4964313;28;20056;-93
2024/03/28 02:19:16;;;;;;;26.08;13.30;;;;;;;;;;4964341;28;20046;-93
2024/03/28 02:21:54;;;;;;;21.25;15.70;;;;;;;;;;4964309;28;20027;-93
2024/03/28 02:24:32;;;;;;;29.63;15.93;;;;;;;;;;4965520;28;20113;-94
2024/03/28 02:27:01;;;;;;;29.13;15.27;;;;;;;;;;4964371;28;20038;-93
2024/03/28 02:29:33;;;;;;;26.23;14.77;;;;;;;;;;4964144;28;20027;-91
2024/03/28 02:31:59;;;;;;;28.02;14.60;;;;;;;;;;4964130;28;20034;-93
2024/03/28 02:34:25;;;;;;;29.60;11.52;;;;;;;;;;4964157;28;20097;-94
2024/03/28 02:36:58;;;;;;;35.10;13.65;;;;;;;;;;4964194;28;20475;-93
2024/03/28 02:39:30;;;;;;;21.10;12.07;;;;;;;;;;4969836;28;20011;-90
2024/03/28 02:42:02;;;;;;;20.55;11.63;;;;;;;;;;4988056;28;20014;-92
2024/03/28 02:44:34;;;;;;;16.33;9.27;;;;;;;;;;4975056;28;20030;-93
2024/03/28 02:47:04;;;;;;;20.45;12.07;;;;;;;;;;4968131;28;20547;-93
2024/03/28 02:49:35;;;;;;;23.05;12.45;;;;;;;;;;4964060;28;20023;-93
2024/03/28 02:52:05;;;;;;;14.60;11.00;;;;;;;;;;4964263;28;20058;-93
2024/03/28 02:54:38;;;;;;;11.77;7.80;;;;;;;;;;4964125;28;20023;-93
2024/03/28 02:57:07;;;;;;;9.05;6.53;;;;;;;;;;4963851;28;20035;-92
2024/03/28 02:59:45;;;;;;;10.23;8.43;;;;;;;;;;4964021;28;20092;-92
2024/03/28 03:02:11;;;;;;;7.22;6.50;;;;;;;;;;4964318;28;20026;-94
2024/03/28 03:04:40;;;;;;;6.95;6.45;;;;;;;;;;4964291;28;20065;-92
2024/03/28 03:07:06;;;;;;;6.75;5.90;;;;;;;;;;4965279;28;20190;-92
2024/03/28 03:09:33;;;;;;;6.03;5.20;;;;;;;;;;4983417;28;20034;-93
2024/03/28 03:15:04;;;;;;;5.20;3.92;;;;;;;;;;4978267;28;20037;-94
2024/03/28 03:17:56;;;;;;;10.00;5.05;;;;;;;;;;4961055;28;20053;-93
2024/03/28 03:20:29;;;;;;;6.53;4.93;;;;;;;;;;4960634;28;20554;-93
2024/03/28 03:23:04;;;;;;;5.87;4.03;;;;;;;;;;4960876;28;20030;-93
2024/03/28 03:34:36;;;;;;;5.07;4.53;;;;;;;;;;4909567;29;20048;-91
2024/03/28 03:37:19;;;;;;;5.93;4.63;;;;;;;;;;4930647;28;20477;-93
2024/03/28 03:39:48;;;;;;;6.40;5.55;;;;;;;;;;4960499;28;20026;-93
2024/03/28 03:42:15;;;;;;;6.53;5.93;;;;;;;;;;4960343;28;20039;-93
2024/03/28 03:44:50;;;;;;;8.23;7.43;;;;;;;;;;4960383;28;20023;-94
2024/03/28 03:47:25;;;;;;;6.65;6.13;;;;;;;;;;4960354;28;20115;-94
2024/03/28 03:49:52;;;;;;;9.32;8.45;;;;;;;;;;4960561;28;20029;-93
2024/03/28 03:52:18;;;;;;;7.47;6.88;;;;;;;;;;4960307;28;20035;-94
2024/03/28 03:54:45;;;;;;;8.38;7.78;;;;;;;;;;4958658;28;20069;-93
2024/03/28 03:57:12;;;;;;;12.55;11.27;;;;;;;;;;4936687;29;20073;-94
2024/03/28 03:59:38;;;;;;;8.73;7.93;;;;;;;;;;4921610;29;20059;-93
2024/03/28 04:02:10;;;;;;;6.65;6.00;;;;;;;;;;4928228;29;20048;-93
2024/03/28 04:04:57;;;;;;;8.23;7.63;;;;;;;;;;4930933;29;20036;-93
2024/03/28 04:07:39;;;;;;;9.25;8.55;;;;;;;;;;4935428;29;20048;-92
2024/03/28 04:10:14;;;;;;;8.75;8.10;;;;;;;;;;4908094;29;20035;-93
2024/03/28 04:12:40;;;;;;;8.07;7.38;;;;;;;;;;4918227;29;20039;-92
2024/03/28 04:15:15;;;;;;;7.43;6.68;;;;;;;;;;4912308;29;20031;-93
2024/03/28 04:17:44;;;;;;;8.98;8.18;;;;;;;;;;4910084;29;20100;-93
2024/03/28 04:20:11;;;;;;;8.55;7.70;;;;;;;;;;4939187;29;20031;-93
2024/03/28 04:22:40;;;;;;;8.27;7.70;;;;;;;;;;4947933;28;20093;-93
2024/03/28 04:25:06;;;;;;;9.40;8.57;;;;;;;;;;4949348;29;20040;-93
2024/03/28 04:27:33;;;;;;;9.70;8.85;;;;;;;;;;4939523;29;20098;-92
2024/03/28 04:30:02;;;;;;;10.57;9.90;;;;;;;;;;4939738;29;20062;-93
2024/03/28 04:32:29;;;;;;;13.55;12.35;;;;;;;;;;4939722;29;20046;-92
2024/03/28 04:34:55;;;;;;;10.27;9.55;;;;;;;;;;4940125;29;20024;-94
2024/03/28 04:37:24;;;;;;;14.48;13.38;;;;;;;;;;4940422;29;20023;-92
2024/03/28 04:39:50;;;;;;;14.40;13.50;;;;;;;;;;4942324;28;20034;-92
2024/03/28 04:42:20;;;;;;;14.00;13.07;;;;;;;;;;4959065;28;20027;-91
2024/03/28 04:44:49;;;;;;;13.60;12.65;;;;;;;;;;4943768;28;20089;-93
2024/03/28 04:47:18;;;;;;;12.40;11.60;;;;;;;;;;4954397;29;20031;-94
2024/03/28 04:49:48;;;;;;;16.17;15.18;;;;;;;;;;4941785;28;20023;-94
2024/03/28 04:52:20;;;;;;;16.13;14.98;;;;;;;;;;4971354;28;20117;-93
2024/03/28 04:55:05;;;;;;;14.38;13.57;;;;;;;;;;4960936;28;20035;-93
2024/03/28 04:57:33;;;;;;;17.90;16.77;;;;;;;;;;4959358;28;20440;-93
2024/03/28 05:00:00;;;;;;;16.65;15.65;;;;;;;;;;4959101;28;20022;-93
2024/03/28 05:02:29;;;;;;;15.07;14.18;;;;;;;;;;4963700;28;20113;-92
2024/03/28 05:04:58;;;;;;;20.10;18.92;;;;;;;;;;4955150;28;20039;-93
2024/03/28 05:07:25;;;;;;;20.92;19.65;;;;;;;;;;4958961;28;20053;-93
2024/03/28 05:09:54;;;;;;;15.05;13.98;;;;;;;;;;4958654;28;20110;-92
2024/03/28 05:12:23;;;;;;;16.77;15.65;;;;;;;;;;4959209;28;20122;-92
2024/03/28 05:14:58;;;;;;;18.73;17.63;;;;;;;;;;4958603;28;20030;-93
2024/03/28 05:17:43;;;;;;;20.23;19.02;;;;;;;;;;4937754;28;20051;-96
2024/03/28 05:20:13;;;;;;;21.60;20.40;;;;;;;;;;4979271;28;20085;-92
2024/03/28 05:22:43;;;;;;;15.30;14.20;;;;;;;;;;4943821;28;20369;-93
2024/03/28 05:25:33;;;;;;;16.67;15.68;;;;;;;;;;4958640;28;20034;-93
2024/03/28 05:28:05;;;;;;;20.50;19.33;;;;;;;;;;4961098;28;20034;-91
2024/03/28 05:30:35;;;;;;;19.25;17.98;;;;;;;;;;4958812;28;20113;-92
2024/03/28 05:33:01;;;;;;;18.27;16.90;;;;;;;;;;4958318;28;20031;-90
2024/03/28 05:35:27;;;;;;;19.98;18.73;;;;;;;;;;4957950;28;20030;-92
2024/03/28 05:37:59;;;;;;;19.52;18.33;;;;;;;;;;4958469;28;20117;-93
2024/03/28 05:40:35;;;;;;;;;;;;;;;;;;;;;
2024/03/28 05:43:07;;;;;;;20.85;19.55;;;;;;;;;;4997718;28;20045;-92
2024/03/28 05:45:36;;;;;;;21.85;20.65;;;;;;;;;;4978645;28;20062;-93
2024/03/28 05:48:09;;;;;;;14.00;13.20;;;;;;;;;;4966674;28;20058;-94
2024/03/28 05:50:38;;;;;;;21.38;20.17;;;;;;;;;;4960478;28;20031;-93
2024/03/28 05:53:04;;;;;;;27.77;26.23;;;;;;;;;;4959710;28;20030;-90
2024/03/28 05:55:33;;;;;;;36.10;34.10;;;;;;;;;;4957845;28;20031;-91
2024/03/28 05:58:09;;;;;;;57.33;54.20;;;;;;;;;;4958158;28;20026;-91
2024/03/28 06:00:53;;;;;;;65.00;61.60;;;;;;;;;;4958334;28;20483;-92
2024/03/28 06:03:54;;;;;;;61.45;58.13;;;;;;;;;;4958037;28;20027;-92
2024/03/28 06:06:20;;;;;;;57.42;54.38;;;;;;;;;;4958772;28;20039;-92
2024/03/28 06:08:52;;;;;;;57.03;53.95;;;;;;;;;;4958387;28;20035;-92
2024/03/28 06:11:21;;;;;;;70.18;66.43;;;;;;;;;;4958335;28;20035;-92
2024/03/28 06:14:19;;;;;;;63.65;59.97;;;;;;;;;;4958260;28;20037;-92
2024/03/28 06:16:48;;;;;;;39.28;36.95;;;;;;;;;;4958278;28;20030;-91
2024/03/28 06:19:14;;;;;;;41.10;38.70;;;;;;;;;;4958735;28;20038;-91
2024/03/28 06:21:43;;;;;;;32.67;30.50;;;;;;;;;;4958437;28;20077;-93
2024/03/28 06:24:21;;;;;;;27.15;25.52;;;;;;;;;;4958011;28;20502;-94
2024/03/28 06:26:55;;;;;;;32.22;30.42;;;;;;;;;;4959416;28;20074;-91
2024/03/28 06:29:36;;;;;;;41.40;39.10;;;;;;;;;;4959355;28;20076;-92
2024/03/28 06:32:13;;;;;;;36.25;34.17;;;;;;;;;;4956289;28;20050;-92
2024/03/28 06:34:44;;;;;;;37.58;35.42;;;;;;;;;;4973714;28;20022;-93
2024/03/28 06:37:15;;;;;;;36.92;34.85;;;;;;;;;;4969154;28;20046;-93
2024/03/28 06:40:18;;;;;;;34.33;32.13;;;;;;;;;;4977779;28;20042;-95
2024/03/28 06:43:40;;;;;;;24.63;23.27;;;;;;;;;;4988007;28;20054;-96
2024/03/28 06:46:14;;;;;;;33.42;31.27;;;;;;;;;;5017593;23;20034;-96
2024/03/28 06:48:40;;;;;;;28.55;27.02;;;;;;;;;;4963763;28;20126;-96
2024/03/28 06:54:23;;;;;;;26.88;25.42;;;;;;;;;;4971887;28;20464;-94
2024/03/28 06:56:58;;;;;;;29.38;27.67;;;;;;;;;;4981458;28;20026;-92
2024/03/28 06:59:25;;;;;;;23.00;21.77;;;;;;;;;;4982594;28;20042;-92
2024/03/28 07:02:03;;;;;;;19.23;18.23;;;;;;;;;;4980631;28;20030;-93
2024/03/28 07:04:29;;;;;;;20.08;18.98;;;;;;;;;;4980521;28;20467;-92
2024/03/28 07:07:01;;;;;;;22.05;20.85;;;;;;;;;;4981388;28;20129;-93
2024/03/28 07:09:31;;;;;;;18.77;17.75;;;;;;;;;;4980116;28;20126;-92
2024/03/28 07:12:00;;;;;;;16.10;15.20;;;;;;;;;;4980476;28;20085;-91
2024/03/28 07:17:39;;;;;;;15.57;14.77;;;;;;;;;;4985151;28;20414;-93
2024/03/28 07:20:07;;;;;;;18.55;17.55;;;;;;;;;;4960505;28;20122;-92
2024/03/28 07:22:37;;;;;;;18.48;17.48;;;;;;;;;;4977057;28;20038;-94
2024/03/28 07:25:10;;;;;;;15.88;14.85;;;;;;;;;;4960817;28;20435;-92
2024/03/28 07:27:44;;;;;;;13.45;12.57;;;;;;;;;;4978801;28;20034;-93
2024/03/28 07:33:12;;;;;;;14.80;14.00;;;;;;;;;;4937712;29;20126;-92
2024/03/28 07:35:41;;;;;;;18.00;17.00;;;;;;;;;;4921338;29;20040;-93
2024/03/28 07:38:10;;;;;;;15.23;14.43;;;;;;;;;;4956916;28;20041;-91
2024/03/28 07:40:52;;;;;;;18.10;16.98;;;;;;;;;;4980105;28;20037;-92
2024/03/28 07:43:21;;;;;;;15.57;14.77;;;;;;;;;;4974682;28;20030;-91
2024/03/28 07:52:20;;;;;;;16.58;15.65;;;;;;;;;;4988156;28;20483;-90
2024/03/28 07:55:20;;;;;;;16.55;15.52;;;;;;;;;;4980510;28;20065;-89
2024/03/28 07:58:02;;;;;;;14.27;13.48;;;;;;;;;;4978411;28;20033;-89
2024/03/28 08:00:28;;;;;;;15.05;14.25;;;;;;;;;;4978928;28;20026;-89
2024/03/28 08:06:18;;;;;;;17.52;16.63;;;;;;;;;;4996723;28;20049;-89
2024/03/28 08:08:51;;;;;;;14.13;13.32;;;;;;;;;;4979594;28;20084;-89
2024/03/28 08:11:17;;;;;;;13.82;12.90;;;;;;;;;;4980022;28;20069;-92
2024/03/28 08:14:01;;;;;;;16.65;15.73;;;;;;;;;;4979970;28;20400;-89
2024/03/28 08:16:32;;;;;;;16.70;15.57;;;;;;;;;;4996431;28;20411;-89
2024/03/28 08:18:58;;;;;;;15.73;14.30;;;;;;;;;;4986692;28;20084;-91
2024/03/28 08:23:59;;;;;;;18.67;17.65;;;;;;;;;;4977531;28;20054;-90
2024/03/28 08:26:25;;;;;;;25.80;24.42;;;;;;;;;;4959752;28;20073;-90
2024/03/28 08:28:58;;;;;;;29.45;27.80;;;;;;;;;;4959720;28;20030;-89
2024/03/28 08:34:19;;;;;;;32.45;30.65;;;;;;;;;;4946106;29;20031;-94
2024/03/28 08:36:51;;;;;;;31.33;29.52;;;;;;;;;;4980705;23;20102;-90
2024/03/28 08:42:34;;;;;;;34.45;32.55;;;;;;;;;;4976781;28;20041;-92
2024/03/28 08:45:18;;;;;;;39.53;36.95;;;;;;;;;;4964154;28;20134;-92
2024/03/28 08:48:17;;;;;;;;;;;;;;;;;;4972169;28;20065;-94
2024/03/28 08:50:47;;;;;;;35.53;33.47;;;;;;;;;;5007717;28;19921;-93
2024/03/28 08:53:37;;;;;;;47.65;44.80;;;;;;;;;;5303107;23;20043;-93
2024/03/28 08:56:42;;;;;;;;;;;;;;;;;;;;;
2024/03/28 09:02:01;;;;;;;33.95;31.92;;;;;;;;;;5106702;23;20062;-92
2024/03/28 09:10:34;;;;;;;36.40;34.22;;;;;;;;;;4996066;28;20081;-93
2024/03/28 09:13:06;;;;;;;45.58;42.80;;;;;;;;;;4979228;28;20030;-94
2024/03/28 09:15:40;;;;;;;45.55;42.60;;;;;;;;;;4977962;28;20084;-92
2024/03/28 09:21:17;;;;;;;24.23;22.73;;;;;;;;;;4978727;28;20023;-92
2024/03/28 09:23:43;;;;;;;20.65;19.42;;;;;;;;;;4977632;28;20483;-92
2024/03/28 09:26:13;;;;;;;24.48;23.08;;;;;;;;;;4977605;28;20034;-93
2024/03/28 09:29:09;;;;;;;29.00;27.30;;;;;;;;;;4977942;28;20029;-91
2024/03/28 09:36:52;;;;;;;20.67;19.27;;;;;;;;;;5007499;23;20069;-93
2024/03/28 09:39:26;;;;;;;22.50;21.23;;;;;;;;;;4977579;28;20018;-94
2024/03/28 09:41:58;;;;;;;18.27;17.05;;;;;;;;;;4977933;28;20048;-92
2024/03/28 09:44:35;;;;;;;20.80;19.63;;;;;;;;;;4977575;28;20034;-92
2024/03/28 09:47:08;;;;;;;22.40;21.02;;;;;;;;;;4984120;28;20046;-92
2024/03/28 09:49:41;;;;;;;25.25;23.85;;;;;;;;;;4978865;28;20062;-92
2024/03/28 09:52:07;;;;;;;;;;;;;;;;;;4977890;28;20038;-90
2024/03/28 09:54:51;;;;;;;22.95;21.65;;;;;;;;;;4977644;28;19928;-94
2024/03/28 09:57:23;;;;;;;30.23;28.50;;;;;;;;;;4976924;28;20453;-95
2024/03/28 09:59:49;;;;;;;29.00;27.15;;;;;;;;;;4978038;28;20072;-94
2024/03/28 10:02:19;;;;;;;36.08;33.88;;;;;;;;;;4995190;28;20058;-94
2024/03/28 10:11:14;;;;;;;34.40;32.35;;;;;;;;;;4995253;28;20038;-92
2024/03/28 10:14:14;;;;;;;44.97;42.10;;;;;;;;;;4977560;28;20031;-91
2024/03/28 10:17:01;;;;;;;39.63;37.15;;;;;;;;;;4977596;28;20033;-93
2024/03/28 10:19:39;;;;;;;33.20;31.17;;;;;;;;;;4977587;28;20046;-93
2024/03/28 10:22:12;;;;;;;33.75;31.55;;;;;;;;;;4980682;28;20498;-91
2024/03/28 10:24:38;;;;;;;;;;;;;;;;;;4982438;28;20049;-91
2024/03/28 10:27:23;;;;;;;26.30;24.67;;;;;;;;;;4981124;28;20437;-92
2024/03/28 10:29:58;;;;;;;27.27;25.55;;;;;;;;;;4980990;28;20061;-91
2024/03/28 10:32:30;;;;;;;31.13;29.15;;;;;;;;;;4981254;28;20034;-92
2024/03/28 10:35:11;;;;;;;32.30;30.23;;;;;;;;;;4976307;28;20058;-93
2024/03/28 10:37:46;;;;;;;26.95;25.25;;;;;;;;;;4960535;28;20038;-92
2024/03/28 10:40:18;;;;;;;28.10;26.42;;;;;;;;;;4960870;28;20038;-92
2024/03/28 10:43:09;;;;;;;37.53;35.25;;;;;;;;;;4960659;28;20034;-91
2024/03/28 10:45:54;;;;;;;31.75;29.88;;;;;;;;;;4962050;28;20110;-93
2024/03/28 10:48:35;;;;;;;33.15;30.88;;;;;;;;;;4938999;29;20032;-94
2024/03/28 10:51:41;;;;;;;29.55;27.52;;;;;;;;;;4939337;29;20124;-91
2024/03/28 10:54:09;;;;;;;29.00;27.17;;;;;;;;;;4847618;29;20078;-91
2024/03/28 10:56:41;;;;;;;29.77;27.75;;;;;;;;;;4861574;29;20029;-91
2024/03/28 11:02:15;;;;;;;33.53;31.67;;;;;;;;;;4902127;29;20425;-92
2024/03/28 11:04:57;;;;;;;26.45;24.90;;;;;;;;;;4937166;29;20422;-92
2024/03/28 11:07:24;;;;;;;31.20;29.25;;;;;;;;;;4941041;29;20038;-92
2024/03/28 11:09:58;;;;;;;26.95;25.40;;;;;;;;;;4941562;29;20445;-91
2024/03/28 11:12:25;;;;;;;27.85;25.95;;;;;;;;;;4941480;29;20031;-92
2024/03/28 11:15:04;;;;;;;29.65;27.92;;;;;;;;;;4940744;29;20511;-92
2024/03/28 11:17:45;;;;;;;25.98;24.50;;;;;;;;;;4919067;29;20043;-92
2024/03/28 11:20:20;;;;;;;27.83;26.23;;;;;;;;;;4937759;29;20079;-93
2024/03/28 11:23:23;;;;;;;31.27;29.52;;;;;;;;;;4940951;29;20039;-92
2024/03/28 11:29:11;;;;;;;28.95;27.25;;;;;;;;;;4956700;29;20046;-92
2024/03/28 11:31:40;;;;;;;30.52;28.50;;;;;;;;;;4939875;29;20047;-92
2024/03/28 11:34:12;;;;;;;32.53;30.60;;;;;;;;;;4940700;29;20083;-92
2024/03/28 11:36:42;;;;;;;32.22;30.35;;;;;;;;;;4925930;29;20044;-93
2024/03/28 11:39:27;;;;;;;29.27;27.58;;;;;;;;;;4921878;29;20055;-91
2024/03/28 11:41:58;;;;;;;31.88;30.00;;;;;;;;;;4883374;29;20458;-92
2024/03/28 11:49:41;;;;;;;31.35;29.50;;;;;;;;;;4985579;28;20031;-92
2024/03/28 11:52:10;;;;;;;28.05;26.27;;;;;;;;;;4996647;28;20137;-92
2024/03/28 11:54:36;;;;;;;26.27;24.77;;;;;;;;;;4982200;28;20112;-92
2024/03/28 11:57:03;;;;;;;25.73;24.33;;;;;;;;;;4996622;28;20030;-92
2024/03/28 11:59:29;;;;;;;35.00;33.00;;;;;;;;;;4999731;28;20065;-91
2024/03/28 12:02:11;;;;;;;33.50;31.58;;;;;;;;;;4988930;28;20360;-92
2024/03/28 12:04:40;;;;;;;31.08;29.25;;;;;;;;;;4983852;28;20030;-93
2024/03/28 12:07:09;;;;;;;26.58;25.08;;;;;;;;;;4979482;28;20368;-93
2024/03/28 12:09:38;;;;;;;37.85;35.70;;;;;;;;;;4979719;28;20019;-93
2024/03/28 12:12:16;;;;;;;28.20;26.60;;;;;;;;;;4979385;28;20096;-93
2024/03/28 12:14:43;;;;;;;25.10;23.70;;;;;;;;;;4979219;28;20026;-92
2024/03/28 12:17:16;;;;;;;26.23;24.73;;;;;;;;;;4983555;23;20117;-93
2024/03/28 12:22:38;;;;;;;34.03;32.13;;;;;;;;;;4976612;28;20039;-92
2024/03/28 12:25:15;;;;;;;35.00;32.97;;;;;;;;;;4960914;28;20467;-92
2024/03/28 12:28:04;;;;;;;32.55;30.77;;;;;;;;;;4981662;28;20031;-93
2024/03/28 12:30:54;;;;;;;33.20;31.33;;;;;;;;;;4943612;28;20463;-95
2024/03/28 12:33:20;;;;;;;28.88;27.02;;;;;;;;;;4980835;28;20023;-95
2024/03/28 12:36:12;;;;;;;41.38;38.78;;;;;;;;;;4979403;28;20069;-94
2024/03/28 12:38:39;;;;;;;29.73;28.02;;;;;;;;;;4979952;28;20034;-94
2024/03/28 12:41:26;;;;;;;31.85;29.83;;;;;;;;;;4978729;28;20031;-94
2024/03/28 12:44:26;;;;;;;27.33;25.73;;;;;;;;;;4981212;28;20030;-93
2024/03/28 12:47:00;;;;;;;31.55;29.67;;;;;;;;;;4978391;28;20060;-93
2024/03/28 12:49:28;;;;;;;28.98;27.35;;;;;;;;;;4978329;28;20026;-93
2024/03/28 12:52:00;;;;;;;25.23;23.83;;;;;;;;;;4978690;28;20037;-91
2024/03/28 12:54:26;;;;;;;32.95;31.00;;;;;;;;;;4978649;28;20027;-92
2024/03/28 12:56:54;;;;;;;31.20;29.42;;;;;;;;;;4978340;28;20030;-91
2024/03/28 12:59:20;;;;;;;31.40;29.50;;;;;;;;;;4978476;28;20030;-92
2024/03/28 13:01:46;;;;;;;30.85;29.05;;;;;;;;;;4978242;28;20558;-92
2024/03/28 13:04:18;;;;;;;29.70;28.00;;;;;;;;;;4978733;28;20113;-92
2024/03/28 13:06:44;;;;;;;30.30;28.50;;;;;;;;;;4978579;28;20081;-92
2024/03/28 13:09:13;;;;;;;28.45;26.67;;;;;;;;;;4964930;28;20086;-92
2024/03/28 13:11:45;;;;;;;30.63;28.80;;;;;;;;;;4958980;28;20046;-92
2024/03/28 13:14:11;;;;;;;32.05;30.25;;;;;;;;;;4971232;28;20037;-92
2024/03/28 13:16:40;;;;;;;30.38;28.38;;;;;;;;;;4977761;28;20046;-92
2024/03/28 13:19:13;;;;;;;28.70;27.13;;;;;;;;;;4978127;28;20041;-92
2024/03/28 13:21:39;;;;;;;34.20;32.20;;;;;;;;;;4978641;28;20033;-91
2024/03/28 13:24:10;;;;;;;31.70;30.00;;;;;;;;;;4979029;28;20034;-92
2024/03/28 13:26:45;;;;;;;29.25;27.65;;;;;;;;;;4980165;28;20037;-90
2024/03/28 13:29:16;;;;;;;37.95;35.90;;;;;;;;;;4997197;28;20042;-89
2024/03/28 13:32:04;;;;;;;34.17;32.28;;;;;;;;;;4980565;28;20049;-92
2024/03/28 13:34:36;;;;;;;34.85;32.88;;;;;;;;;;5000086;28;20015;-93
2024/03/28 13:37:27;;;;;;;28.17;26.55;;;;;;;;;;4981399;28;20027;-93
2024/03/28 13:39:56;;;;;;;30.85;29.02;;;;;;;;;;4978880;28;20031;-92
2024/03/28 13:42:43;;;;;;;33.10;31.08;;;;;;;;;;4978297;28;20030;-91
2024/03/28 13:45:09;;;;;;;40.13;37.75;;;;;;;;;;4977339;28;20037;-92
2024/03/28 13:47:44;;;;;;;30.42;28.45;;;;;;;;;;4934988;29;20035;-92
2024/03/28 13:50:19;;;;;;;32.35;30.50;;;;;;;;;;4918852;29;20032;-92
2024/03/28 13:52:48;;;;;;;29.45;27.83;;;;;;;;;;4919445;29;20043;-93
2024/03/28 13:55:18;;;;;;;34.80;32.67;;;;;;;;;;4918941;29;20035;-89
2024/03/28 13:57:49;;;;;;;31.13;29.33;;;;;;;;;;4920096;29;20143;-91
2024/03/28 14:00:15;;;;;;;29.38;27.67;;;;;;;;;;4919324;29;20042;-90
2024/03/28 14:02:44;;;;;;;32.13;30.33;;;;;;;;;;4919120;29;20063;-94
2024/03/28 14:05:10;;;;;;;29.90;28.23;;;;;;;;;;4919020;29;20083;-90
2024/03/28 14:07:36;;;;;;;30.23;28.52;;;;;;;;;;4918857;29;20040;-90
2024/03/28 14:10:05;;;;;;;33.20;31.10;;;;;;;;;;4919159;29;20028;-92
2024/03/28 14:12:58;;;;;;;32.47;30.58;;;;;;;;;;4935000;29;20055;-93
2024/03/28 14:15:28;;;;;;;36.80;34.60;;;;;;;;;;4936079;29;20050;-88
2024/03/28 14:18:06;;;;;;;47.92;44.92;;;;;;;;;;4934569;28;20129;-94
2024/03/28 14:20:32;;;;;;;49.95;47.17;;;;;;;;;;4974747;28;20073;-90
2024/03/28 14:22:58;;;;;;;45.47;42.92;;;;;;;;;;4977667;28;20076;-89
2024/03/28 14:25:37;;;;;;;44.75;42.20;;;;;;;;;;4977776;28;20498;-88
2024/03/28 14:28:06;;;;;;;43.60;41.15;;;;;;;;;;4977415;28;20092;-89
2024/03/28 14:30:35;;;;;;;43.50;41.10;;;;;;;;;;4977063;28;20026;-93
2024/03/28 14:33:03;;;;;;;52.58;49.67;;;;;;;;;;4977096;28;20034;-90
2024/03/28 14:35:35;;;;;;;39.10;36.78;;;;;;;;;;4994871;28;20054;-90
2024/03/28 14:38:01;;;;;;;37.10;34.85;;;;;;;;;;4978279;28;20046;-90
2024/03/28 14:40:42;;;;;;;43.60;40.97;;;;;;;;;;4978275;28;20056;-94
2024/03/28 14:43:08;;;;;;;36.42;34.35;;;;;;;;;;4979612;28;20018;-91
2024/03/28 14:45:46;;;;;;;41.92;39.63;;;;;;;;;;4980927;28;20042;-95
2024/03/28 14:48:13;;;;;;;44.28;41.67;;;;;;;;;;4977662;28;20022;-89
2024/03/28 14:50:48;;;;;;;36.90;34.85;;;;;;;;;;4985224;28;20045;-91
2024/03/28 14:53:30;;;;;;;39.22;37.13;;;;;;;;;;4982129;28;20033;-94
2024/03/28 14:56:06;;;;;;;41.17;38.72;;;;;;;;;;4980234;28;20050;-93
2024/03/28 14:58:56;;;;;;;53.47;50.40;;;;;;;;;;4983011;28;20031;-95
2024/03/28 15:01:45;;;;;;;34.85;32.75;;;;;;;;;;4998106;28;20086;-91
2024/03/28 15:04:34;;;;;;;48.10;45.08;;;;;;;;;;4949524;29;20043;-93
2024/03/28 15:07:10;;;;;;;41.10;38.80;;;;;;;;;;4949527;29;20466;-93
2024/03/28 15:09:43;;;;;;;41.75;39.45;;;;;;;;;;4928408;29;20043;-93
2024/03/28 15:12:21;;;;;;;83.60;78.95;;;;;;;;;;4944258;29;20038;-94
2024/03/28 15:14:59;;;;;;;45.60;42.63;;;;;;;;;;4959474;28;20023;-96
2024/03/28 15:17:29;;;;;;;34.35;32.33;;;;;;;;;;4975504;28;20065;-94
2024/03/28 15:23:21;;;;;;;36.63;34.50;;;;;;;;;;4921979;29;20032;-92
2024/03/28 15:25:56;;;;;;;50.45;47.72;;;;;;;;;;4903238;29;20056;-92
2024/03/28 15:28:22;;;;;;;49.83;46.90;;;;;;;;;;4902889;29;20106;-93
2024/03/28 15:30:49;;;;;;;44.70;42.15;;;;;;;;;;4921012;28;20039;-93
2024/03/28 15:33:15;;;;;;;38.22;35.90;;;;;;;;;;4980114;28;20026;-91
2024/03/28 15:35:41;;;;;;;40.83;38.53;;;;;;;;;;4979844;28;20065;-92
2024/03/28 15:38:07;;;;;;;42.22;39.63;;;;;;;;;;4980074;28;20122;-92
2024/03/28 15:40:54;;;;;;;45.45;42.78;;;;;;;;;;4980240;28;20482;-92
2024/03/28 15:43:22;;;;;;;36.70;34.28;;;;;;;;;;4997240;28;20459;-91
2024/03/28 15:46:00;;;;;;;44.38;41.58;;;;;;;;;;4981260;28;20049;-91
2024/03/28 15:48:29;;;;;;;41.78;38.88;;;;;;;;;;4981059;28;20041;-91
2024/03/28 15:50:55;;;;;;;36.20;34.00;;;;;;;;;;4980510;28;20030;-92
2024/03/28 15:53:25;;;;;;;43.05;40.65;;;;;;;;;;4979694;28;20027;-92
2024/03/28 15:55:54;;;;;;;49.15;46.35;;;;;;;;;;4980301;28;20173;-93
2024/03/28 15:58:29;;;;;;;52.80;49.90;;;;;;;;;;4980445;28;20429;-91
2024/03/28 16:00:58;;;;;;;36.33;34.28;;;;;;;;;;4979832;28;20125;-94
2024/03/28 16:03:31;;;;;;;40.17;37.97;;;;;;;;;;4979840;28;20026;-93
2024/03/28 16:05:57;;;;;;;38.37;36.10;;;;;;;;;;4996926;28;20483;-92
2024/03/28 16:08:27;;;;;;;34.63;32.65;;;;;;;;;;4979812;28;20106;-93
2024/03/28 16:10:59;;;;;;;52.08;49.20;;;;;;;;;;4975205;28;20042;-93
2024/03/28 16:13:46;;;;;;;66.13;62.55;;;;;;;;;;4974630;28;20034;-92
2024/03/28 16:16:12;;;;;;;48.70;45.95;;;;;;;;;;4996672;28;20133;-92
2024/03/28 16:18:38;;;;;;;82.68;78.20;;;;;;;;;;4983664;28;20033;-92
2024/03/28 16:21:04;;;;;;;37.90;35.83;;;;;;;;;;4979966;28;20022;-92